Time;durP1;ratioP1;P1;durP2;ratioP2;P2;SDS_P1;SDS_P2;PMS_P1;PMS_P2;Temp;Humidity;BMP_temperature;BMP_pressure;BME280_temperature;BME280_humidity;BME280_pressure;Samples;Min_cycle;Max_cycle;Signal;HPM_P1;HPM_P2
2023/09/18 00:01:43;;;;;;;;;4.33;3.67;;;;;20.21;100.00;100464.28;5111838;27;46173;-73
2023/09/18 00:04:09;;;;;;;;;3.67;3.67;;;;;20.34;100.00;100493.56;5110864;27;45206;-73
2023/09/18 00:06:35;;;;;;;;;4.00;3.00;;;;;20.17;100.00;100470.91;5128645;27;52617;-73
2023/09/18 00:09:00;;;;;;;;;3.67;3.33;;;;;20.29;100.00;100493.97;5109360;27;45283;-72
2023/09/18 00:11:25;;;;;;;;;4.00;3.00;;;;;20.24;100.00;100489.00;5113581;27;45656;-73
2023/09/18 00:13:51;;;;;;;;;5.00;3.33;;;;;20.25;100.00;100495.25;5105423;27;45670;-75
2023/09/18 00:16:16;;;;;;;;;7.67;4.00;;;;;20.19;100.00;100493.94;5112002;27;48302;-75
2023/09/18 00:18:43;;;;;;;;;5.00;4.00;;;;;20.17;100.00;100492.41;5116657;27;45362;-75
2023/09/18 00:21:10;;;;;;;;;4.00;4.00;;;;;20.16;100.00;100490.69;5108891;27;45366;-73
2023/09/18 00:23:38;;;;;;;;;5.67;4.33;;;;;20.14;100.00;100482.78;5105354;27;45800;-75
2023/09/18 00:26:04;;;;;;;;;7.00;5.33;;;;;20.17;100.00;100485.19;5102157;27;45444;-74
2023/09/18 00:28:29;;;;;;;;;5.00;5.00;;;;;20.16;100.00;100490.69;5102670;27;45307;-75
2023/09/18 00:30:55;;;;;;;;;6.00;5.00;;;;;20.15;100.00;100487.19;5099924;27;45720;-75
2023/09/18 00:33:20;;;;;;;;;5.33;5.33;;;;;20.09;100.00;100479.66;5114109;27;45598;-75
2023/09/18 00:35:50;;;;;;;;;3.67;2.33;;;;;20.04;100.00;100473.03;5108798;27;46196;-76
2023/09/18 00:38:16;;;;;;;;;4.00;4.00;;;;;19.99;100.00;100465.38;5111334;27;45382;-75
2023/09/18 00:40:41;;;;;;;;;7.33;6.00;;;;;20.06;100.00;100476.41;5111636;27;45359;-74
2023/09/18 00:43:09;;;;;;;;;6.67;5.33;;;;;19.99;100.00;100467.25;5102125;27;46169;-73
2023/09/18 00:45:40;;;;;;;;;5.00;4.00;;;;;20.04;100.00;100492.69;5112548;27;46020;-73
2023/09/18 00:48:06;;;;;;;;;3.00;3.00;;;;;19.99;100.00;100494.91;5108361;27;45465;-73
2023/09/18 00:50:31;;;;;;;;;3.00;3.00;;;;;19.98;100.00;100500.44;5103886;27;45361;-73
2023/09/18 00:52:57;;;;;;;;;4.00;4.00;;;;;19.96;100.00;100499.75;5112942;27;45552;-75
2023/09/18 00:55:22;;;;;;;;;1.00;1.00;;;;;19.91;100.00;100505.53;5117754;27;45726;-73
2023/09/18 00:57:47;;;;;;;;;1.33;1.33;;;;;19.82;100.00;100498.31;5117733;27;45501;-73
2023/09/18 01:00:16;;;;;;;;;2.00;2.00;;;;;19.79;100.00;100487.00;5117929;27;45306;-73
2023/09/18 01:02:43;;;;;;;;;3.00;3.00;;;;;19.66;100.00;100465.78;5110556;27;45411;-75
2023/09/18 01:05:08;;;;;;;;;4.00;2.00;;;;;19.77;100.00;100492.50;5101514;27;45713;-73
2023/09/18 01:07:34;;;;;;;;;0.00;0.00;;;;;19.70;100.00;100478.78;5104316;27;45326;-73
2023/09/18 01:09:59;;;;;;;;;3.00;2.00;;;;;19.74;100.00;100493.63;5116283;27;45341;-73
2023/09/18 01:12:39;;;;;;;;;1.67;1.67;;;;;19.72;100.00;100495.59;5105940;27;45337;-73
2023/09/18 01:15:12;;;;;;;;;2.00;2.00;;;;;19.71;100.00;100499.25;5117347;27;46842;-73
2023/09/18 01:17:38;;;;;;;;;1.33;1.33;;;;;19.64;100.00;100483.84;5108401;27;45306;-72
2023/09/18 01:20:05;;;;;;;;;2.67;1.00;;;;;19.65;100.00;100482.88;5109517;27;45463;-73
2023/09/18 01:22:31;;;;;;;;;2.33;2.33;;;;;19.66;100.00;100482.75;5107815;27;45461;-72
2023/09/18 01:24:56;;;;;;;;;2.33;2.00;;;;;19.58;100.00;100471.84;5106398;27;47698;-72
2023/09/18 01:27:22;;;;;;;;;4.00;3.00;;;;;19.63;100.00;100483.00;5114624;27;48992;-73
2023/09/18 01:29:48;;;;;;;;;4.00;1.33;;;;;19.59;100.00;100475.38;5104712;27;46013;-72
2023/09/18 01:32:14;;;;;;;;;1.67;1.67;;;;;19.52;100.00;100485.81;5098354;27;45310;-73
2023/09/18 01:34:47;;;;;;;;;0.33;0.33;;;;;19.53;100.00;100482.16;5100808;27;45457;-72
2023/09/18 01:37:15;;;;;;;;;3.00;1.00;;;;;19.52;100.00;100483.13;5099128;27;45329;-72
2023/09/18 01:39:42;;;;;;;;;2.00;2.00;;;;;19.52;100.00;100479.59;5104827;27;45479;-72
2023/09/18 01:42:09;;;;;;;;;2.00;2.00;;;;;19.54;100.00;100491.03;5106900;27;45494;-74
2023/09/18 01:44:37;;;;;;;;;2.00;1.00;;;;;19.43;100.00;100483.94;5112281;27;46157;-73
2023/09/18 01:47:04;;;;;;;;;1.00;1.00;;;;;19.50;100.00;100487.75;5117674;27;45308;-72
2023/09/18 01:49:31;;;;;;;;;1.00;1.00;;;;;19.48;100.00;100491.56;5111301;27;45287;-74
2023/09/18 01:51:57;;;;;;;;;0.00;0.00;;;;;19.45;100.00;100489.16;5117892;27;45345;-73
2023/09/18 01:54:23;;;;;;;;;1.00;1.00;;;;;19.36;100.00;100468.50;5116048;27;45306;-73
2023/09/18 01:56:48;;;;;;;;;2.00;2.00;;;;;19.36;100.00;100466.66;5116576;27;45632;-74
2023/09/18 01:59:13;;;;;;;;;1.00;1.00;;;;;19.41;100.00;100483.22;5110167;27;45389;-73
2023/09/18 02:01:39;;;;;;;;;1.00;1.00;;;;;19.26;100.00;100465.78;5116630;27;45683;-73
2023/09/18 02:04:04;;;;;;;;;1.67;1.00;;;;;19.26;100.00;100468.47;5114261;27;45673;-75
2023/09/18 02:06:30;;;;;;;;;2.33;2.00;;;;;19.34;100.00;100473.16;5102080;27;45322;-73
2023/09/18 02:08:55;;;;;;;;;2.00;1.00;;;;;19.34;100.00;100481.22;5102697;27;45397;-75
2023/09/18 02:11:21;;;;;;;;;1.00;1.00;;;;;19.32;100.00;100473.28;5104235;27;45348;-75
2023/09/18 02:13:46;;;;;;;;;2.00;2.00;;;;;19.18;100.00;100449.50;5103477;27;45606;-75
2023/09/18 02:16:11;;;;;;;;;0.67;0.67;;;;;19.19;100.00;100464.63;5108444;27;45480;-74
2023/09/18 02:18:36;;;;;;;;;2.00;1.00;;;;;19.16;100.00;100468.44;5113130;27;45223;-75
2023/09/18 02:21:02;;;;;;;;;2.00;2.00;;;;;19.26;100.00;100479.19;5108631;27;45382;-75
2023/09/18 02:23:28;;;;;;;;;1.00;1.00;;;;;19.18;100.00;100476.31;5112068;27;45404;-75
2023/09/18 02:25:58;;;;;;;;;2.00;2.00;;;;;19.21;100.00;100490.31;5103679;27;45407;-75
2023/09/18 02:28:23;;;;;;;;;0.67;0.33;;;;;19.15;100.00;100480.13;5131584;27;45476;-75
2023/09/18 02:30:48;;;;;;;;;1.33;1.33;;;;;19.19;100.00;100502.16;5101351;27;45443;-74
2023/09/18 02:33:15;;;;;;;;;1.00;0.67;;;;;19.04;100.00;100466.00;5101778;27;45388;-75
2023/09/18 02:35:40;;;;;;;;;1.00;1.00;;;;;19.20;100.00;100491.31;5109218;27;45479;-74
2023/09/18 02:38:06;;;;;;;;;2.00;2.00;;;;;19.19;100.00;100496.81;5107094;27;45274;-75
2023/09/18 02:40:31;;;;;;;;;1.00;1.00;;;;;19.13;100.00;100481.25;5110262;27;50539;-75
2023/09/18 02:42:56;;;;;;;;;2.00;2.00;;;;;19.17;100.00;100493.41;5102675;27;52197;-73
2023/09/18 02:45:21;;;;;;;;;1.00;1.00;;;;;19.14;100.00;100507.91;5113491;27;45625;-75
2023/09/18 02:47:47;;;;;;;;;1.00;1.00;;;;;19.17;100.00;100502.28;5110706;27;45337;-75
2023/09/18 02:50:12;;;;;;;;;2.00;2.00;;;;;19.14;100.00;100502.56;5114634;27;49414;-75
2023/09/18 02:52:37;;;;;;;;;2.67;2.67;;;;;19.11;100.00;100492.09;5100465;27;46673;-75
2023/09/18 02:55:03;;;;;;;;;2.00;2.00;;;;;19.04;100.00;100485.56;5103657;27;45208;-75
2023/09/18 02:57:28;;;;;;;;;2.00;2.00;;;;;18.99;100.00;100498.53;5107436;27;45416;-76
2023/09/18 02:59:54;;;;;;;;;1.67;1.67;;;;;19.04;100.00;100487.44;5116072;27;54418;-75
2023/09/18 03:02:19;;;;;;;;;2.00;2.00;;;;;18.98;100.00;100496.84;5103299;27;48351;-76
2023/09/18 03:04:44;;;;;;;;;3.00;2.67;;;;;18.99;100.00;100495.00;5107524;27;45614;-76
2023/09/18 03:07:12;;;;;;;;;2.00;2.00;;;;;18.91;100.00;100478.75;5103647;27;50454;-75
2023/09/18 03:09:38;;;;;;;;;2.00;2.00;;;;;18.95;100.00;100494.41;5116356;27;46446;-76
2023/09/18 03:12:03;;;;;;;;;1.00;1.00;;;;;18.91;100.00;100482.28;5114439;27;45325;-75
2023/09/18 03:14:29;;;;;;;;;1.00;1.00;;;;;18.88;100.00;100489.75;5105489;27;45476;-75
2023/09/18 03:16:54;;;;;;;;;1.67;1.67;;;;;18.90;100.00;100483.28;5115284;27;45318;-75
2023/09/18 03:19:22;;;;;;;;;3.33;2.00;;;;;18.85;100.00;100481.97;5107159;27;45577;-75
2023/09/18 03:21:47;;;;;;;;;3.67;2.67;;;;;18.86;100.00;100486.34;5112481;27;45945;-76
2023/09/18 03:24:12;;;;;;;;;1.00;1.00;;;;;18.72;100.00;100469.63;5109370;27;45354;-76
2023/09/18 03:26:38;;;;;;;;;2.67;2.67;;;;;18.81;100.00;100472.50;5116988;27;47752;-75
2023/09/18 03:29:03;;;;;;;;;2.00;2.00;;;;;18.80;100.00;100479.69;5110809;27;45345;-75
2023/09/18 03:31:29;;;;;;;;;2.00;2.00;;;;;18.75;100.00;100468.50;5100888;27;45506;-75
2023/09/18 03:33:55;;;;;;;;;2.00;2.00;;;;;18.74;100.00;100472.19;5104091;27;45373;-75
2023/09/18 03:36:23;;;;;;;;;3.33;1.67;;;;;18.69;100.00;100461.00;5113120;27;45401;-75
2023/09/18 03:38:49;;;;;;;;;1.67;1.67;;;;;18.70;100.00;100473.41;5105902;27;45290;-75
2023/09/18 03:41:14;;;;;;;;;1.00;1.00;;;;;18.75;100.00;100473.03;5112451;27;46565;-75
2023/09/18 03:43:40;;;;;;;;;3.00;2.00;;;;;18.65;100.00;100465.75;5107300;27;45438;-75
2023/09/18 03:46:06;;;;;;;;;3.00;3.00;;;;;18.45;100.00;100428.25;5113348;27;45322;-75
2023/09/18 03:48:37;;;;;;;;;2.67;2.00;;;;;18.66;100.00;100462.13;5106701;27;45420;-75
2023/09/18 03:51:05;;;;;;;;;3.33;3.33;;;;;18.69;100.00;100461.00;5114708;27;45344;-75
2023/09/18 03:53:33;;;;;;;;;2.67;2.67;;;;;18.71;100.00;100465.25;5108340;27;45356;-76
2023/09/18 03:55:58;;;;;;;;;2.00;2.00;;;;;18.68;100.00;100465.50;5111620;27;45303;-76
2023/09/18 03:58:23;;;;;;;;;3.00;3.00;;;;;18.65;100.00;100454.22;5103418;27;45538;-75
2023/09/18 04:00:49;;;;;;;;;4.00;4.00;;;;;18.63;100.00;100446.31;5105146;27;47329;-76
2023/09/18 04:03:14;;;;;;;;;3.00;3.00;;;;;18.62;100.00;100454.47;5108097;27;45339;-75
2023/09/18 04:05:40;;;;;;;;;3.33;2.33;;;;;18.67;100.00;100458.47;5119763;27;45337;-75
2023/09/18 04:08:05;;;;;;;;;3.00;1.33;;;;;18.55;100.00;100439.94;5108599;27;45471;-75
2023/09/18 04:10:30;;;;;;;;;3.00;2.00;;;;;18.58;100.00;100445.00;5116147;27;46861;-76
2023/09/18 04:12:56;;;;;;;;;3.00;3.00;;;;;18.65;100.00;100463.09;5114716;27;45360;-75
2023/09/18 04:15:23;;;;;;;;;2.00;2.00;;;;;18.65;100.00;100454.22;5107090;27;45692;-75
2023/09/18 04:17:48;;;;;;;;;2.67;2.67;;;;;18.55;100.00;100442.59;5112109;27;45352;-76
2023/09/18 04:20:14;;;;;;;;;2.00;2.00;;;;;18.64;100.00;100453.38;5103890;27;46819;-76
2023/09/18 04:22:44;;;;;;;;;2.33;2.00;;;;;18.54;100.00;100460.50;5111294;27;45449;-76
2023/09/18 04:25:10;;;;;;;;;3.33;2.67;;;;;18.61;100.00;100455.47;5100094;27;45511;-75
2023/09/18 04:27:35;;;;;;;;;2.00;2.00;;;;;18.64;100.00;100456.06;5101234;27;45401;-76
2023/09/18 04:30:00;;;;;;;;;4.00;2.33;;;;;18.58;100.00;100451.22;5113007;27;45504;-75
2023/09/18 04:32:29;;;;;;;;;2.67;2.67;;;;;18.51;100.00;100442.00;5118146;27;45871;-75
2023/09/18 04:34:54;;;;;;;;;2.67;2.67;;;;;18.61;100.00;100458.13;5112696;27;45220;-76
2023/09/18 04:37:20;;;;;;;;;2.67;2.67;;;;;18.60;100.00;100456.44;5100058;27;45522;-76
2023/09/18 04:39:45;;;;;;;;;4.33;4.00;;;;;18.57;100.00;100459.38;5098589;27;47658;-75
2023/09/18 04:42:10;;;;;;;;;3.33;3.33;;;;;18.55;100.00;100447.97;5106618;27;50378;-76
2023/09/18 04:44:35;;;;;;;;;2.00;2.00;;;;;18.62;100.00;100457.13;5117981;27;45364;-75
2023/09/18 04:47:01;;;;;;;;;2.00;2.00;;;;;18.55;100.00;100447.97;5109605;27;45229;-75
2023/09/18 04:49:27;;;;;;;;;2.00;2.00;;;;;18.55;100.00;100448.78;5102592;27;46092;-75
2023/09/18 04:51:53;;;;;;;;;3.00;3.00;;;;;18.61;100.00;100461.69;5105872;27;45369;-76
2023/09/18 04:54:19;;;;;;;;;2.67;2.67;;;;;18.62;100.00;100452.63;5115789;27;45262;-76
2023/09/18 04:56:45;;;;;;;;;4.00;2.33;;;;;18.48;100.00;100433.34;5129933;27;45503;-75
2023/09/18 04:59:10;;;;;;;;;4.00;4.00;;;;;18.57;100.00;100443.31;5107113;27;46403;-75
2023/09/18 05:01:36;;;;;;;;;2.33;2.00;;;;;18.56;100.00;100453.16;5105030;27;45526;-76
2023/09/18 05:04:01;;;;;;;;;3.33;3.33;;;;;18.41;100.00;100432.19;5109575;27;45505;-76
2023/09/18 05:06:26;;;;;;;;;5.00;4.33;;;;;18.56;100.00;100453.16;5102318;27;45465;-75
2023/09/18 05:08:53;;;;;;;;;4.33;3.67;;;;;18.57;100.00;100460.22;5118561;27;45519;-75
2023/09/18 05:11:18;;;;;;;;;2.67;2.67;;;;;18.56;100.00;100461.19;5111594;27;45356;-75
2023/09/18 05:13:44;;;;;;;;;4.00;4.00;;;;;18.53;100.00;100452.56;5104115;27;45491;-75
2023/09/18 05:16:09;;;;;;;;;2.00;2.00;;;;;18.49;100.00;100449.28;5104269;27;45489;-76
2023/09/18 05:18:34;;;;;;;;;4.33;4.00;;;;;18.53;100.00;100469.50;5107469;27;45547;-76
2023/09/18 05:21:01;;;;;;;;;4.67;3.00;;;;;18.50;100.00;100456.38;5104045;27;45220;-75
2023/09/18 05:23:26;;;;;;;;;4.00;4.00;;;;;18.50;100.00;100453.69;5102451;27;45261;-75
2023/09/18 05:25:51;;;;;;;;;6.00;4.00;;;;;18.50;100.00;100459.06;5111583;27;45325;-76
2023/09/18 05:28:17;;;;;;;;;5.00;3.00;;;;;18.52;100.00;100457.06;5117949;27;55791;-75
2023/09/18 05:30:42;;;;;;;;;5.00;4.00;;;;;18.56;100.00;100463.88;5110190;27;45267;-75
2023/09/18 05:33:09;;;;;;;;;4.00;4.00;;;;;18.65;100.00;100475.66;5117111;27;45558;-75
2023/09/18 05:35:39;;;;;;;;;4.00;4.00;;;;;18.66;100.00;100472.81;5116723;27;45572;-75
2023/09/18 05:38:05;;;;;;;;;4.00;4.00;;;;;18.75;100.00;100476.53;5104915;27;45356;-75
2023/09/18 05:40:31;;;;;;;;;5.00;4.00;;;;;18.78;100.00;100475.44;5114208;27;45437;-75
2023/09/18 05:42:57;;;;;;;;;4.00;4.00;;;;;18.83;100.00;100481.25;5115014;27;46530;-75
2023/09/18 05:45:23;;;;;;;;;5.67;4.00;;;;;18.84;100.00;100474.91;5112431;27;46986;-75
2023/09/18 05:47:49;;;;;;;;;3.33;3.33;;;;;18.85;100.00;100471.25;5113660;27;46362;-75
2023/09/18 05:50:16;;;;;;;;;5.00;5.00;;;;;18.86;100.00;100475.63;5100725;27;45382;-75
2023/09/18 05:52:42;;;;;;;;;5.00;5.00;;;;;18.92;100.00;100475.94;5114518;27;45361;-76
2023/09/18 05:55:08;;;;;;;;;6.00;4.00;;;;;18.86;100.00;100470.25;5104944;27;45378;-76
2023/09/18 05:57:34;;;;;;;;;6.67;5.33;;;;;18.99;100.00;100486.97;5117487;27;46352;-75
2023/09/18 05:59:59;;;;;;;;;5.67;5.67;;;;;19.01;100.00;100493.88;5102104;27;45637;-75
2023/09/18 06:02:25;;;;;;;;;3.00;3.00;;;;;19.04;100.00;100498.97;5106172;27;45366;-76
2023/09/18 06:05:00;;;;;;;;;3.67;3.67;;;;;19.01;100.00;100491.19;5137661;27;45589;-76
2023/09/18 06:07:26;;;;;;;;;6.33;4.33;;;;;19.09;100.00;100502.13;5106784;27;47414;-75
2023/09/18 06:09:52;;;;;;;;;5.00;4.00;;;;;19.01;100.00;100487.69;5119805;27;45477;-76
2023/09/18 06:12:17;;;;;;;;;7.00;6.00;;;;;19.14;100.00;100515.13;5119072;27;45401;-76
2023/09/18 06:14:42;;;;;;;;;6.33;5.00;;;;;19.12;100.00;100506.38;5112280;27;45347;-76
2023/09/18 06:17:09;;;;;;;;;3.00;3.00;;;;;19.10;100.00;100493.09;5115156;27;45911;-75
2023/09/18 06:19:35;;;;;;;;;5.00;5.00;;;;;19.18;100.00;100498.63;5103430;27;45396;-75
2023/09/18 06:22:00;;;;;;;;;5.00;4.33;;;;;19.22;100.00;100501.91;5115063;27;45396;-75
2023/09/18 06:24:26;;;;;;;;;5.33;5.00;;;;;19.12;100.00;100483.09;5119543;27;45546;-76
2023/09/18 06:26:51;;;;;;;;;6.00;6.00;;;;;19.25;100.00;100494.44;5112311;27;45429;-76
2023/09/18 06:29:16;;;;;;;;;4.33;4.33;;;;;19.33;100.00;100504.50;5112270;27;45334;-76
2023/09/18 06:31:42;;;;;;;;;6.00;6.00;;;;;19.35;100.00;100502.50;5103947;27;45786;-76
2023/09/18 06:34:08;;;;;;;;;7.00;6.00;;;;;19.36;100.00;100501.53;5111281;27;45518;-75
2023/09/18 06:36:33;;;;;;;;;5.00;4.67;;;;;19.36;100.00;100498.00;5103228;27;45472;-75
2023/09/18 06:38:58;;;;;;;;;7.00;5.33;;;;;19.42;100.00;100501.03;5102441;27;45428;-76
2023/09/18 06:41:24;;;;;;;;;8.33;7.00;;;;;19.55;100.00;100509.69;5116615;27;45421;-75
2023/09/18 06:43:49;;;;;;;;;7.33;6.00;;;;;19.57;100.00;100507.69;5100837;27;45631;-76
2023/09/18 06:46:14;;;;;;;;;8.00;5.00;;;;;19.62;100.00;100507.28;5113095;27;46082;-76
2023/09/18 06:48:39;;;;;;;;;8.00;7.67;;;;;19.57;100.00;100490.75;5108915;27;55179;-75
2023/09/18 06:51:06;;;;;;;;;6.33;5.67;;;;;19.57;100.00;100488.06;5114498;27;49682;-75
2023/09/18 06:53:31;;;;;;;;;6.67;6.00;;;;;19.69;100.00;100511.97;5117130;27;45659;-76
2023/09/18 06:55:57;;;;;;;;;5.67;5.00;;;;;19.73;100.00;100507.19;5120682;27;48495;-76
2023/09/18 06:58:22;;;;;;;;;7.00;7.00;;;;;19.71;100.00;100493.91;5102579;27;45485;-75
2023/09/18 07:00:50;;;;;;;;;8.00;7.00;;;;;19.88;100.00;100513.84;5101350;27;45514;-75
2023/09/18 07:03:17;;;;;;;;;6.33;6.33;;;;;19.89;100.00;100495.91;5118179;27;45753;-76
2023/09/18 07:05:43;;;;;;;;;7.67;7.67;;;;;20.05;100.00;100518.56;5112499;27;45518;-76
2023/09/18 07:08:11;;;;;;;;;7.00;7.00;;;;;20.12;100.00;100526.91;5113102;27;45773;-75
2023/09/18 07:10:37;;;;;;;;;8.00;8.00;;;;;20.19;100.00;100528.84;5110568;27;45385;-75
2023/09/18 07:13:03;;;;;;;;;7.00;5.33;;;;;20.30;100.00;100540.50;5108378;27;45577;-75
2023/09/18 07:15:28;;;;;;;;;7.33;7.33;;;;;20.29;100.00;100545.00;5108196;27;45703;-75
2023/09/18 07:17:54;;;;;;;;;10.67;6.33;;;;;20.33;100.00;100534.84;5109458;27;45489;-75
2023/09/18 07:20:19;;;;;;;;;7.00;6.00;;;;;20.37;100.00;100541.63;5113695;27;45342;-75
2023/09/18 07:22:47;;;;;;;;;6.00;6.00;;;;;20.42;100.00;100534.00;5110159;27;45310;-76
2023/09/18 07:25:12;;;;;;;;;9.00;7.00;;;;;20.44;100.00;100529.34;5102623;27;46081;-76
2023/09/18 07:27:43;;;;;;;;;7.67;5.67;;;;;20.51;100.00;100531.31;5099443;27;45396;-75
2023/09/18 07:30:10;;;;;;;;;7.00;5.33;;;;;20.58;100.00;100536.97;5101682;27;45327;-75
2023/09/18 07:32:35;;;;;;;;;6.00;5.00;;;;;20.68;100.00;100541.31;5100795;27;45349;-76
2023/09/18 07:35:01;;;;;;;;;7.00;7.00;;;;;20.72;100.00;100539.19;5102971;27;45835;-75
2023/09/18 07:37:26;;;;;;;;;7.00;6.33;;;;;20.76;100.00;100546.00;5110443;27;45305;-75
2023/09/18 07:39:51;;;;;;;;;6.67;5.33;;;;;20.85;100.00;100555.03;5115149;27;45684;-75
2023/09/18 07:42:17;;;;;;;;;7.00;7.00;;;;;20.92;100.00;100548.06;5121030;27;45394;-75
2023/09/18 07:44:42;;;;;;;;;9.00;9.00;;;;;20.96;100.00;100552.19;5118474;27;45448;-75
2023/09/18 07:47:07;;;;;;;;;7.00;7.00;;;;;21.02;100.00;100546.22;5113978;27;46259;-75
2023/09/18 07:49:33;;;;;;;;;6.33;5.33;;;;;21.09;100.00;100544.66;5108578;27;46533;-74
2023/09/18 07:51:58;;;;;;;;;5.33;5.33;;;;;21.11;100.00;100537.31;5111646;27;45569;-75
2023/09/18 07:54:24;;;;;;;;;8.33;6.00;;;;;21.15;100.00;100536.88;5100434;27;49048;-75
2023/09/18 07:56:49;;;;;;;;;7.33;6.00;;;;;21.26;100.00;100542.09;5100175;27;45255;-75
2023/09/18 07:59:14;;;;;;;;;6.00;6.00;;;;;21.19;100.00;100532.06;5101002;27;45414;-75
2023/09/18 08:01:41;;;;;;;;;7.33;6.33;;;;;21.26;100.00;100550.16;5105830;27;46093;-75
2023/09/18 08:04:06;;;;;;;;;6.00;6.00;;;;;21.32;100.00;100558.63;5120750;27;45304;-75
2023/09/18 08:06:31;;;;;;;;;6.33;5.67;;;;;21.27;100.00;100534.84;5118966;27;45257;-75
2023/09/18 08:08:57;;;;;;;;;6.33;4.33;;;;;21.42;100.00;100543.28;5120313;27;45281;-75
2023/09/18 08:11:22;;;;;;;;;6.33;5.33;;;;;21.39;100.00;100549.81;5107273;27;46545;-75
2023/09/18 08:13:47;;;;;;;;;5.67;5.33;;;;;21.47;100.00;100546.38;5117907;27;46657;-75
2023/09/18 08:16:13;;;;;;;;;6.33;3.67;;;;;21.48;100.00;100550.78;5120268;27;45416;-75
2023/09/18 08:18:41;;;;;;;;;6.00;5.67;;;;;21.49;100.00;100536.34;5120597;27;45345;-75
2023/09/18 08:21:08;;;;;;;;;5.00;5.00;;;;;21.61;100.00;100546.75;5118108;27;46081;-75
2023/09/18 08:23:38;;;;;;;;;7.00;4.33;;;;;21.67;100.00;100548.84;5102463;27;46367;-75
2023/09/18 08:26:03;;;;;;;;;5.00;5.00;;;;;21.67;100.00;100548.00;5099976;27;45482;-75
2023/09/18 08:28:29;;;;;;;;;6.00;6.00;;;;;21.60;100.00;100544.19;5099814;27;45266;-75
2023/09/18 08:30:55;;;;;;;;;7.00;5.00;;;;;21.63;100.00;100546.59;5108470;27;45333;-75
2023/09/18 08:33:20;;;;;;;;;4.00;4.00;;;;;21.60;100.00;100539.66;5118633;27;46847;-75
2023/09/18 08:35:46;;;;;;;;;5.33;5.00;;;;;21.82;100.00;100555.41;5118400;27;45396;-75
2023/09/18 08:38:12;;;;;;;;;5.00;5.00;;;;;21.82;100.00;100559.97;5106357;27;45432;-75
2023/09/18 08:40:40;;;;;;;;;4.67;3.00;;;;;21.86;100.00;100544.38;5099704;27;45365;-75
2023/09/18 08:43:06;;;;;;;;;5.00;5.00;;;;;22.12;100.00;100565.03;5113252;27;45310;-75
2023/09/18 08:45:31;;;;;;;;;4.00;4.00;;;;;22.30;100.00;100571.31;5110227;27;45308;-75
2023/09/18 08:47:57;;;;;;;;;3.00;3.00;;;;;22.37;97.04;100568.84;5108235;27;45464;-75
2023/09/18 08:50:23;;;;;;;;;6.33;4.67;;;;;22.42;97.95;100566.53;5106200;27;45306;-75
2023/09/18 08:52:49;;;;;;;;;5.00;5.00;;;;;22.49;98.90;100572.16;5105342;27;46392;-75
2023/09/18 08:55:16;;;;;;;;;5.00;5.00;;;;;22.59;99.12;100581.00;5119725;27;45385;-75
2023/09/18 08:57:44;;;;;;;;;4.00;4.00;;;;;22.65;96.56;100556.13;5110303;27;45374;-75
2023/09/18 09:00:16;;;;;;;;;3.67;3.00;;;;;22.77;96.73;100566.53;5106080;27;45320;-75
2023/09/18 09:02:41;;;;;;;;;3.00;3.00;;;;;22.92;96.22;100565.97;5106141;27;45369;-75
2023/09/18 09:05:07;;;;;;;;;3.67;3.67;;;;;23.10;98.38;100580.28;5106648;27;45386;-75
2023/09/18 09:07:32;;;;;;;;;5.67;4.67;;;;;23.10;90.57;100572.19;5106470;27;45956;-75
2023/09/18 09:09:57;;;;;;;;;4.00;4.00;;;;;23.15;92.60;100570.72;5109300;27;45288;-75
2023/09/18 09:12:53;;;;;;;;;4.33;4.00;;;;;23.20;87.46;100571.06;5117095;27;45358;-76
2023/09/18 09:15:20;;;;;;;;;4.33;4.33;;;;;23.18;90.93;100559.59;5112380;27;45362;-75
2023/09/18 09:17:45;;;;;;;;;4.33;4.33;;;;;23.14;90.56;100547.41;5125434;27;45399;-75
2023/09/18 09:20:13;;;;;;;;;5.00;3.67;;;;;23.04;88.23;100554.78;5112636;27;45418;-75
2023/09/18 09:22:40;;;;;;;;;4.33;4.33;;;;;23.03;90.69;100545.00;5127012;27;46676;-75
2023/09/18 09:25:22;;;;;;;;;3.00;3.00;;;;;23.08;92.19;100566.94;5124134;27;45617;-74
2023/09/18 09:27:47;;;;;;;;;4.00;4.00;;;;;23.03;89.96;100550.41;5116598;27;45357;-75
2023/09/18 09:30:20;;;;;;;;;2.00;2.00;;;;;23.08;86.08;100558.84;5107192;27;45446;-75
2023/09/18 09:32:49;;;;;;;;;4.33;4.33;;;;;23.16;88.70;100561.63;5125454;27;45969;-75
2023/09/18 09:35:29;;;;;;;;;3.33;3.33;;;;;23.26;87.79;100551.56;5121631;27;45550;-75
2023/09/18 09:38:00;;;;;;;;;3.00;2.67;;;;;23.19;89.06;100534.31;5126740;27;45392;-74
2023/09/18 09:40:26;;;;;;;;;4.00;3.00;;;;;23.31;88.79;100546.53;5126202;27;45500;-75
2023/09/18 09:43:00;;;;;;;;;7.00;4.00;;;;;23.39;93.18;100553.81;5113548;27;46208;-74
2023/09/18 09:45:27;;;;;;;;;4.33;3.00;;;;;23.37;88.81;100550.41;5125387;27;45332;-75
2023/09/18 09:47:54;;;;;;;;;2.00;2.00;;;;;23.29;87.53;100559.34;5113310;27;45327;-75
2023/09/18 09:50:21;;;;;;;;;4.00;4.00;;;;;23.30;86.03;100555.59;5123834;27;45330;-75
2023/09/18 09:52:52;;;;;;;;;4.33;4.33;;;;;23.18;88.31;100539.84;5121537;27;46854;-75
2023/09/18 09:55:38;;;;;;;;;5.33;4.00;;;;;23.22;89.32;100562.81;5117994;27;45354;-75
2023/09/18 09:58:05;;;;;;;;;2.00;2.00;;;;;23.19;85.35;100563.16;5106574;27;45357;-75
2023/09/18 10:00:43;;;;;;;;;3.00;3.00;;;;;23.22;89.11;100569.06;5106032;27;45965;-75
2023/09/18 10:03:09;;;;;;;;;4.33;3.00;;;;;23.32;86.99;100558.16;5106460;27;46791;-75
2023/09/18 10:05:37;;;;;;;;;4.00;4.00;;;;;23.39;87.51;100570.03;5122115;27;45357;-75
2023/09/18 10:08:11;;;;;;;;;8.00;4.33;;;;;23.36;84.82;100571.16;5119213;27;45472;-75
2023/09/18 10:10:40;;;;;;;;;3.33;3.00;;;;;23.33;84.73;100567.94;5101138;27;45362;-75
2023/09/18 10:13:28;;;;;;;;;3.33;3.00;;;;;23.18;85.06;100540.72;5104315;27;45526;-76
2023/09/18 10:15:56;;;;;;;;;2.67;2.67;;;;;23.34;82.39;100565.09;5100582;27;45321;-74
2023/09/18 10:18:38;;;;;;;;;4.67;3.00;;;;;23.38;83.57;100570.16;5101830;27;45318;-75
2023/09/18 10:21:14;;;;;;;;;2.00;2.00;;;;;23.30;82.60;100562.84;5102382;27;45293;-75
2023/09/18 10:24:09;;;;;;;;;3.00;3.00;;;;;23.18;83.02;100561.44;5119458;27;47816;-75
2023/09/18 10:26:40;;;;;;;;;3.00;3.00;;;;;23.22;84.84;100565.53;5121450;27;45329;-75
2023/09/18 10:29:08;;;;;;;;;4.00;4.00;;;;;23.27;81.17;100573.97;5122675;27;45368;-75
2023/09/18 10:31:36;;;;;;;;;5.67;3.00;;;;;23.22;81.81;100574.47;5108508;27;45322;-75
2023/09/18 10:34:03;;;;;;;;;3.00;3.00;;;;;23.08;80.82;100561.56;5120612;27;45346;-75
2023/09/18 10:36:29;;;;;;;;;4.00;3.00;;;;;23.19;85.86;100573.94;5107071;27;45550;-75
2023/09/18 10:38:56;;;;;;;;;4.00;3.00;;;;;23.09;84.02;100552.47;5101831;27;45349;-75
2023/09/18 10:41:22;;;;;;;;;2.33;2.33;;;;;23.35;85.61;100568.63;5114816;27;45363;-75
2023/09/18 10:43:53;;;;;;;;;3.00;3.00;;;;;23.49;83.10;100569.94;5106232;27;45421;-75
2023/09/18 10:46:20;;;;;;;;;3.00;3.00;;;;;23.48;81.03;100555.59;5101523;27;45448;-75
2023/09/18 10:48:46;;;;;;;;;2.67;2.67;;;;;23.71;82.24;100561.25;5119456;27;45399;-75
2023/09/18 10:51:13;;;;;;;;;2.67;2.67;;;;;23.70;78.63;100568.50;5113106;27;45415;-75
2023/09/18 10:53:39;;;;;;;;;5.00;3.00;;;;;23.83;80.14;100566.19;5101379;27;46168;-75
2023/09/18 10:56:05;;;;;;;;;2.00;2.00;;;;;23.88;80.27;100567.56;5107869;27;45344;-75
2023/09/18 10:58:30;;;;;;;;;2.00;2.00;;;;;23.93;77.76;100546.31;5120935;27;45451;-75
2023/09/18 11:00:59;;;;;;;;;2.67;2.67;;;;;24.04;76.02;100565.78;5121531;27;45469;-75
2023/09/18 11:03:24;;;;;;;;;1.67;1.67;;;;;24.10;75.00;100557.00;5120253;27;47592;-75
2023/09/18 11:06:03;;;;;;;;;1.00;1.00;;;;;24.15;73.29;100562.78;5102724;27;45358;-75
2023/09/18 11:08:45;;;;;;;;;2.00;2.00;;;;;24.18;77.12;100556.22;5101682;27;45378;-75
2023/09/18 11:11:16;;;;;;;;;5.67;3.00;;;;;24.25;73.51;100557.22;5108143;27;45499;-72
2023/09/18 11:13:45;;;;;;;;;2.00;2.00;;;;;24.30;72.57;100569.25;5113139;27;45367;-74
2023/09/18 11:16:17;;;;;;;;;2.00;1.00;;;;;24.34;73.28;100564.34;5106914;27;45607;-74
2023/09/18 11:18:42;;;;;;;;;2.00;2.00;;;;;24.38;73.82;100568.38;5114509;27;45471;-74